createdAt,value
2018-06-30T00:00:29.558Z,51.3
2018-06-30T00:01:30.909Z,51.6
2018-06-30T00:02:32.277Z,50.3
2018-06-30T00:03:33.642Z,49.9
2018-06-30T00:04:35.011Z,49.9
2018-06-30T00:05:36.384Z,49.4
2018-06-30T00:06:37.746Z,49.1
2018-06-30T00:07:39.119Z,48.9
2018-06-30T00:08:40.488Z,48.9
2018-06-30T00:09:41.854Z,48.7
2018-06-30T00:10:43.227Z,48.6
2018-06-30T00:11:44.588Z,48.5
2018-06-30T00:12:45.954Z,48.5
2018-06-30T00:13:47.326Z,48.7
2018-06-30T00:14:48.683Z,48.3
2018-06-30T00:15:50.047Z,48.3
2018-06-30T00:16:51.434Z,48.3
2018-06-30T00:17:52.812Z,47.8
2018-06-30T00:18:54.177Z,47.4
2018-06-30T00:19:55.544Z,47.7
2018-06-30T00:20:57.040Z,47.6
2018-06-30T00:21:58.394Z,47.6
2018-06-30T00:22:59.761Z,47.4
2018-06-30T00:24:01.124Z,47.2
2018-06-30T00:25:02.498Z,47.0
2018-06-30T00:26:03.859Z,46.7
2018-06-30T00:27:05.224Z,46.6
2018-06-30T00:28:06.591Z,46.5
2018-06-30T00:29:07.959Z,46.6
2018-06-30T00:30:09.333Z,46.5
2018-06-30T00:31:10.722Z,46.5
2018-06-30T00:32:12.059Z,46.3
2018-06-30T00:33:14.323Z,46.5
2018-06-30T00:34:15.718Z,46.6
2018-06-30T00:35:17.120Z,46.5
2018-06-30T00:36:18.494Z,46.4
2018-06-30T00:37:19.862Z,46.3
2018-06-30T00:38:21.268Z,46.6
2018-06-30T00:39:22.569Z,46.6
2018-06-30T00:40:23.944Z,46.5
2018-06-30T00:41:25.294Z,46.5
2018-06-30T00:42:26.698Z,46.5
2018-06-30T00:43:28.058Z,46.5
2018-06-30T00:44:29.419Z,46.5
2018-06-30T00:45:30.802Z,46.5
2018-06-30T00:46:32.179Z,46.6
2018-06-30T00:47:33.543Z,46.5
2018-06-30T00:48:34.922Z,46.4
2018-06-30T00:49:36.243Z,46.3
2018-06-30T00:50:37.605Z,46.5
2018-06-30T00:51:38.984Z,46.6
2018-06-30T00:52:40.350Z,46.4
2018-06-30T00:53:41.707Z,46.5
2018-06-30T00:54:43.085Z,46.5
2018-06-30T00:55:44.463Z,46.5
2018-06-30T00:56:45.823Z,46.6
2018-06-30T00:57:47.193Z,46.7
2018-06-30T00:58:48.611Z,45.9
2018-06-30T00:59:49.932Z,46.1
2018-06-30T01:00:51.302Z,46.3
2018-06-30T01:01:52.658Z,46.4
2018-06-30T01:02:54.024Z,45.9
2018-06-30T01:03:55.388Z,45.3
2018-06-30T01:04:56.748Z,45.7
2018-06-30T01:05:58.127Z,45.3
2018-06-30T01:06:59.489Z,45.3
2018-06-30T01:08:00.862Z,45.2
2018-06-30T01:09:02.224Z,45.4
2018-06-30T01:10:03.579Z,45.4
2018-06-30T01:11:04.948Z,45.3
2018-06-30T01:12:06.312Z,45.4
2018-06-30T01:13:07.675Z,45.4
2018-06-30T01:14:09.048Z,45.1
2018-06-30T01:15:10.413Z,45.3
2018-06-30T01:16:11.787Z,45.1
2018-06-30T01:17:13.157Z,45.0
2018-06-30T01:18:14.537Z,45.0
2018-06-30T01:19:15.909Z,45.0
2018-06-30T01:20:17.276Z,45.2
2018-06-30T01:21:18.633Z,45.2
2018-06-30T01:22:20.003Z,45.3
2018-06-30T01:23:21.367Z,45.0
2018-06-30T01:24:22.739Z,45.3
2018-06-30T01:25:24.108Z,45.1
2018-06-30T01:26:25.465Z,45.0
2018-06-30T01:27:26.844Z,45.0
2018-06-30T01:28:28.228Z,45.1
2018-06-30T01:29:29.589Z,45.1
2018-06-30T01:30:30.952Z,45.7
2018-06-30T01:31:32.334Z,46.3
2018-06-30T01:32:33.697Z,46.6
2018-06-30T01:33:35.063Z,46.9
2018-06-30T01:34:36.432Z,47.7
2018-06-30T01:35:37.805Z,47.7
2018-06-30T01:36:39.160Z,48.1
2018-06-30T01:37:40.530Z,48.5
2018-06-30T01:38:41.889Z,48.8
2018-06-30T01:39:43.259Z,49.1
2018-06-30T01:40:44.633Z,49.7
2018-06-30T01:41:46.005Z,50.3
2018-06-30T01:42:47.380Z,51.4
2018-06-30T01:43:48.753Z,51.7
2018-06-30T01:44:50.114Z,51.8
2018-06-30T01:45:51.482Z,51.7
2018-06-30T01:46:52.838Z,52.4
2018-06-30T01:47:54.203Z,52.8
2018-06-30T01:48:55.573Z,52.8
2018-06-30T01:49:56.931Z,53.9
2018-06-30T01:50:58.303Z,53.7
2018-06-30T01:51:59.681Z,54.8
2018-06-30T01:53:01.038Z,55.0
2018-06-30T01:54:02.408Z,55.5
2018-06-30T01:55:03.765Z,56.9
2018-06-30T01:56:05.136Z,57.0
2018-06-30T01:57:06.507Z,57.9
2018-06-30T01:58:07.868Z,58.0
2018-06-30T01:59:09.233Z,58.5
2018-06-30T02:00:10.584Z,58.9
2018-06-30T02:01:11.949Z,59.2
2018-06-30T02:02:13.313Z,59.4
2018-06-30T02:03:14.665Z,60.2
2018-06-30T02:04:16.059Z,60.3
2018-06-30T02:05:17.409Z,60.2
2018-06-30T02:06:18.775Z,60.3
2018-06-30T02:07:20.143Z,60.0
2018-06-30T02:08:21.510Z,60.3
2018-06-30T02:09:22.867Z,60.6
2018-06-30T02:10:24.224Z,61.1
2018-06-30T02:11:25.589Z,61.1
2018-06-30T02:12:26.947Z,61.2
2018-06-30T02:13:28.315Z,61.5
2018-06-30T02:14:29.669Z,62.2
2018-06-30T02:15:31.063Z,61.9
2018-06-30T02:16:32.420Z,62.4
2018-06-30T02:17:33.854Z,63.0
2018-06-30T02:18:35.178Z,63.0
2018-06-30T02:19:36.528Z,62.9
2018-06-30T02:20:37.880Z,63.0
2018-06-30T02:21:39.249Z,63.5
2018-06-30T02:22:40.608Z,63.7
2018-06-30T02:23:41.982Z,64.1
2018-06-30T02:24:43.338Z,63.5
2018-06-30T02:25:44.712Z,64.7
2018-06-30T02:26:46.083Z,64.7
2018-06-30T02:27:47.449Z,64.8
2018-06-30T02:28:48.824Z,65.2
2018-06-30T02:29:50.183Z,65.4
2018-06-30T02:30:51.544Z,65.9
2018-06-30T02:31:52.908Z,66.1
2018-06-30T02:32:54.270Z,66.1
2018-06-30T02:33:55.640Z,66.7
2018-06-30T02:34:57.004Z,66.7
2018-06-30T02:35:58.375Z,66.7
2018-06-30T02:36:59.731Z,66.7
2018-06-30T02:38:01.099Z,66.9
2018-06-30T02:39:02.545Z,66.9
2018-06-30T02:40:03.849Z,67.0
2018-06-30T02:41:05.202Z,67.4
2018-06-30T02:42:06.565Z,67.7
2018-06-30T02:43:07.923Z,67.3
2018-06-30T02:44:09.299Z,67.4
2018-06-30T02:45:10.675Z,68.1
2018-06-30T02:46:12.037Z,67.5
2018-06-30T02:47:13.905Z,68.3
2018-06-30T02:48:15.292Z,68.2
2018-06-30T02:49:16.649Z,68.2
2018-06-30T02:50:18.027Z,68.0
2018-06-30T02:51:19.377Z,68.1
2018-06-30T02:52:20.735Z,68.5
2018-06-30T02:53:22.105Z,68.5
2018-06-30T02:54:23.470Z,69.0
2018-06-30T02:55:24.823Z,69.2
2018-06-30T02:56:26.184Z,68.8
2018-06-30T02:57:27.559Z,69.3
2018-06-30T02:58:28.914Z,69.8
2018-06-30T02:59:30.274Z,69.6
2018-06-30T03:00:31.634Z,69.9
2018-06-30T03:01:33.009Z,70.0
2018-06-30T03:02:34.365Z,69.9
2018-06-30T03:03:35.729Z,70.1
2018-06-30T03:04:37.092Z,70.3
2018-06-30T03:05:38.460Z,70.5
2018-06-30T03:06:39.830Z,70.3
2018-06-30T03:07:41.414Z,70.0
2018-06-30T03:08:42.726Z,70.0
2018-06-30T03:09:44.121Z,70.4
2018-06-30T03:10:45.491Z,70.6
2018-06-30T03:11:46.850Z,70.8
2018-06-30T03:12:48.212Z,70.7
2018-06-30T03:13:49.583Z,70.9
2018-06-30T03:14:50.944Z,70.9
2018-06-30T03:15:52.314Z,71.2
2018-06-30T03:16:53.680Z,71.6
2018-06-30T03:17:55.052Z,71.5
2018-06-30T03:18:56.409Z,71.9
2018-06-30T03:19:57.776Z,71.8
2018-06-30T03:20:59.144Z,72.1
2018-06-30T03:22:00.505Z,72.2
2018-06-30T03:23:01.900Z,72.1
2018-06-30T03:24:03.264Z,71.7
2018-06-30T03:25:04.626Z,72.6
2018-06-30T03:26:05.980Z,72.7
2018-06-30T03:27:07.355Z,72.4
2018-06-30T03:28:08.725Z,73.0
2018-06-30T03:29:10.087Z,73.1
2018-06-30T03:30:11.461Z,72.8
2018-06-30T03:31:12.812Z,73.0
2018-06-30T03:32:14.184Z,73.0
2018-06-30T03:33:15.545Z,72.8
2018-06-30T03:34:16.917Z,72.9
2018-06-30T03:35:18.281Z,72.8
2018-06-30T03:36:19.640Z,72.9
2018-06-30T03:37:21.011Z,72.9
2018-06-30T03:38:22.366Z,73.2
2018-06-30T03:39:23.740Z,73.0
2018-06-30T03:40:25.112Z,72.8
2018-06-30T03:41:26.476Z,72.6
2018-06-30T03:42:27.844Z,72.8
2018-06-30T03:43:29.201Z,72.5
2018-06-30T03:44:30.583Z,72.8
2018-06-30T03:45:31.941Z,72.8
2018-06-30T03:46:33.303Z,72.5
2018-06-30T03:47:34.672Z,72.5
2018-06-30T03:48:36.037Z,72.3
2018-06-30T03:49:37.410Z,72.5
2018-06-30T03:50:38.770Z,72.2
2018-06-30T03:51:40.156Z,72.7
2018-06-30T03:52:41.518Z,72.6
2018-06-30T03:53:42.881Z,72.6
2018-06-30T03:54:44.752Z,72.6
2018-06-30T03:55:46.122Z,72.7
2018-06-30T03:56:47.501Z,72.9
2018-06-30T03:57:48.862Z,72.9
2018-06-30T03:58:50.231Z,72.9
2018-06-30T03:59:51.598Z,73.0
2018-06-30T04:00:52.960Z,72.9
2018-06-30T04:01:54.322Z,72.9
2018-06-30T04:02:55.696Z,72.9
2018-06-30T04:03:57.069Z,72.9
2018-06-30T04:04:58.440Z,72.7
2018-06-30T04:05:59.810Z,72.9
2018-06-30T04:07:01.167Z,72.9
2018-06-30T04:08:02.532Z,72.9
2018-06-30T04:09:03.891Z,72.7
2018-06-30T04:10:05.266Z,73.6
2018-06-30T04:11:06.635Z,73.0
2018-06-30T04:12:08.010Z,72.9
2018-06-30T04:13:09.386Z,72.9
2018-06-30T04:14:10.748Z,73.0
2018-06-30T04:15:12.115Z,73.2
2018-06-30T04:16:13.470Z,73.1
2018-06-30T04:17:14.868Z,73.4
2018-06-30T04:18:16.239Z,73.4
2018-06-30T04:19:17.604Z,73.7
2018-06-30T04:20:18.967Z,73.3
2018-06-30T04:21:20.335Z,73.2
2018-06-30T04:22:21.707Z,73.6
2018-06-30T04:23:23.074Z,74.1
2018-06-30T04:24:24.437Z,74.1
2018-06-30T04:25:25.807Z,74.3
2018-06-30T04:26:27.180Z,73.9
2018-06-30T04:27:28.552Z,74.4
2018-06-30T04:28:29.917Z,75.0
2018-06-30T04:29:31.290Z,74.5
2018-06-30T04:30:32.664Z,74.4
2018-06-30T04:31:34.036Z,75.0
2018-06-30T04:32:35.402Z,74.7
2018-06-30T04:33:36.772Z,75.3
2018-06-30T04:34:38.135Z,75.3
2018-06-30T04:35:39.501Z,74.8
2018-06-30T04:36:40.870Z,75.1
2018-06-30T04:37:42.337Z,75.0
2018-06-30T04:38:43.736Z,75.1
2018-06-30T04:39:45.112Z,75.3
2018-06-30T04:40:46.495Z,75.5
2018-06-30T04:41:47.871Z,75.1
2018-06-30T04:42:49.236Z,75.3
2018-06-30T04:43:50.587Z,75.4
2018-06-30T04:44:51.962Z,75.3
2018-06-30T04:45:53.332Z,75.3
2018-06-30T04:46:54.748Z,75.4
2018-06-30T04:47:56.121Z,75.4
2018-06-30T04:48:57.492Z,75.2
2018-06-30T04:49:58.851Z,75.4
2018-06-30T04:51:00.265Z,76.1
2018-06-30T04:52:01.598Z,75.8
2018-06-30T04:53:02.958Z,76.0
2018-06-30T04:54:04.332Z,75.7
2018-06-30T04:55:05.700Z,76.1
2018-06-30T04:56:07.067Z,76.0
2018-06-30T04:57:08.440Z,76.5
2018-06-30T04:58:09.803Z,76.9
2018-06-30T04:59:11.170Z,76.4
2018-06-30T05:00:12.543Z,76.8
2018-06-30T05:01:13.948Z,76.6
2018-06-30T05:02:15.311Z,76.6
2018-06-30T05:03:16.681Z,76.2
2018-06-30T05:04:18.058Z,76.6
2018-06-30T05:05:19.428Z,76.2
2018-06-30T05:06:20.798Z,76.8
2018-06-30T05:07:22.167Z,77.1
2018-06-30T05:08:23.525Z,77.2
2018-06-30T05:09:24.892Z,77.0
2018-06-30T05:10:26.267Z,77.1
2018-06-30T05:11:27.633Z,77.4
2018-06-30T05:12:28.997Z,77.5
2018-06-30T05:13:30.358Z,77.6
2018-06-30T05:14:31.737Z,77.3
2018-06-30T05:15:33.113Z,77.7
2018-06-30T05:16:34.501Z,77.7
2018-06-30T05:17:35.865Z,77.6
2018-06-30T05:18:37.232Z,77.6
2018-06-30T05:19:38.586Z,77.6
2018-06-30T05:20:39.967Z,77.6
2018-06-30T05:21:41.341Z,77.7
2018-06-30T05:22:42.717Z,77.4
2018-06-30T05:23:44.111Z,77.4
2018-06-30T05:24:45.489Z,77.2
2018-06-30T05:25:46.867Z,77.3
2018-06-30T05:26:48.221Z,76.8
2018-06-30T05:27:49.596Z,76.9
2018-06-30T05:28:50.957Z,77.2
2018-06-30T05:29:52.335Z,77.1
2018-06-30T05:30:53.710Z,77.4
2018-06-30T05:31:55.076Z,77.2
2018-06-30T05:32:56.432Z,76.2
2018-06-30T05:33:57.790Z,76.8
2018-06-30T05:34:59.157Z,77.0
2018-06-30T05:36:00.527Z,76.7
2018-06-30T05:37:01.893Z,76.5
2018-06-30T05:38:03.289Z,76.3
2018-06-30T05:39:04.655Z,76.3
2018-06-30T05:40:06.016Z,76.1
2018-06-30T05:41:07.446Z,75.4
2018-06-30T05:42:08.721Z,75.1
2018-06-30T05:43:10.080Z,74.2
2018-06-30T05:44:11.464Z,74.2
2018-06-30T05:45:12.825Z,73.6
2018-06-30T05:46:14.210Z,73.2
2018-06-30T05:47:15.591Z,72.0
2018-06-30T05:48:16.967Z,71.6
2018-06-30T05:49:18.350Z,71.0
2018-06-30T05:50:19.726Z,71.2
2018-06-30T05:51:21.087Z,70.3
2018-06-30T05:52:22.471Z,69.8
2018-06-30T05:53:23.847Z,69.3
2018-06-30T05:54:25.212Z,68.7
2018-06-30T05:55:26.588Z,68.3
2018-06-30T05:56:27.961Z,67.5
2018-06-30T05:57:29.346Z,67.5
2018-06-30T05:58:30.713Z,67.5
2018-06-30T05:59:32.089Z,66.7
2018-06-30T06:00:33.467Z,66.4
2018-06-30T06:01:34.828Z,66.6
2018-06-30T06:02:36.216Z,65.9
2018-06-30T06:03:37.587Z,65.7
2018-06-30T06:04:38.969Z,65.5
2018-06-30T06:05:40.341Z,65.3
2018-06-30T06:06:41.717Z,64.9
2018-06-30T06:07:43.101Z,64.8
2018-06-30T06:08:44.493Z,64.2
2018-06-30T06:09:45.887Z,63.6
2018-06-30T06:10:47.228Z,63.5
2018-06-30T06:11:48.637Z,63.1
2018-06-30T06:12:50.015Z,63.3
2018-06-30T06:13:51.391Z,63.4
2018-06-30T06:14:52.762Z,62.5
2018-06-30T06:15:54.129Z,62.7
2018-06-30T06:16:55.506Z,62.2
2018-06-30T06:17:56.944Z,62.4
2018-06-30T06:18:58.333Z,62.6
2018-06-30T06:19:59.704Z,62.3
2018-06-30T06:21:01.081Z,62.0
2018-06-30T06:22:02.486Z,62.0
2018-06-30T06:23:03.868Z,62.4
2018-06-30T06:24:05.244Z,61.3
2018-06-30T06:25:06.618Z,60.6
2018-06-30T06:26:08.000Z,61.0
2018-06-30T06:27:09.389Z,60.4
2018-06-30T06:28:10.783Z,60.7
2018-06-30T06:29:12.162Z,60.0
2018-06-30T06:30:13.552Z,59.6
2018-06-30T06:31:14.916Z,59.3
2018-06-30T06:32:16.307Z,59.8
2018-06-30T06:33:17.714Z,59.2
2018-06-30T06:34:19.108Z,59.1
2018-06-30T06:35:20.484Z,59.2
2018-06-30T06:36:21.868Z,59.0
2018-06-30T06:37:23.242Z,58.3
2018-06-30T06:38:24.621Z,58.4
2018-06-30T06:39:26.008Z,58.1
2018-06-30T06:40:27.385Z,58.0
2018-06-30T06:41:28.773Z,58.0
2018-06-30T06:42:30.151Z,57.0
2018-06-30T06:43:31.544Z,57.5
2018-06-30T06:44:32.934Z,57.3
2018-06-30T06:45:34.324Z,56.8
2018-06-30T06:46:35.709Z,56.6
2018-06-30T06:47:37.096Z,56.1
2018-06-30T06:48:38.469Z,55.6
2018-06-30T06:49:39.857Z,55.9
2018-06-30T06:50:41.269Z,56.0
2018-06-30T06:51:42.674Z,55.5
2018-06-30T06:52:44.949Z,55.6
2018-06-30T06:53:46.332Z,55.0
2018-06-30T06:54:47.714Z,55.0
2018-06-30T06:55:49.108Z,55.3
2018-06-30T06:56:50.484Z,54.7
2018-06-30T06:57:51.869Z,54.3
2018-06-30T06:58:53.257Z,54.2
2018-06-30T06:59:54.644Z,54.3
2018-06-30T07:00:56.033Z,53.7
2018-06-30T07:01:57.418Z,53.5
2018-06-30T07:02:58.847Z,53.9
2018-06-30T07:04:00.195Z,53.8
2018-06-30T07:05:01.578Z,53.9
2018-06-30T07:06:02.978Z,53.4
2018-06-30T07:07:04.369Z,53.5
2018-06-30T07:08:05.742Z,53.0
2018-06-30T07:09:07.139Z,53.1
2018-06-30T07:10:08.527Z,52.9
2018-06-30T07:11:09.914Z,53.0
2018-06-30T07:12:11.299Z,52.5
2018-06-30T07:13:12.702Z,52.6
2018-06-30T07:14:14.102Z,52.4
2018-06-30T07:15:15.493Z,52.3
2018-06-30T07:16:16.872Z,52.4
2018-06-30T07:17:18.258Z,51.6
2018-06-30T07:18:19.698Z,51.3
2018-06-30T07:19:21.153Z,51.2
2018-06-30T07:20:22.502Z,50.9
2018-06-30T07:21:23.880Z,51.1
2018-06-30T07:22:25.268Z,50.6
2018-06-30T07:23:26.645Z,50.2
2018-06-30T07:24:28.036Z,50.1
2018-06-30T07:25:29.481Z,50.0
2018-06-30T07:26:30.819Z,49.8
2018-06-30T07:27:32.203Z,49.0
2018-06-30T07:28:33.598Z,49.0
2018-06-30T07:29:34.998Z,48.8
2018-06-30T07:30:36.390Z,48.7
2018-06-30T07:31:37.777Z,48.9
2018-06-30T07:32:39.214Z,48.5
2018-06-30T07:33:40.587Z,48.1
2018-06-30T07:34:42.023Z,47.8
2018-06-30T07:35:43.361Z,47.7
2018-06-30T07:36:44.754Z,47.8
2018-06-30T07:37:46.140Z,47.5
2018-06-30T07:38:47.666Z,47.5
2018-06-30T07:39:49.054Z,47.5
2018-06-30T07:40:50.455Z,46.9
2018-06-30T07:41:51.839Z,46.6
2018-06-30T07:42:53.220Z,46.3
2018-06-30T07:43:54.604Z,46.6
2018-06-30T07:44:55.990Z,46.7
2018-06-30T07:45:57.368Z,46.1
2018-06-30T07:46:58.746Z,46.4
2018-06-30T07:48:00.321Z,46.2
2018-06-30T07:49:01.563Z,46.2
2018-06-30T07:50:02.959Z,46.0
2018-06-30T07:51:04.343Z,45.9
2018-06-30T07:52:05.721Z,45.5
2018-06-30T07:53:07.153Z,45.7
2018-06-30T07:54:08.533Z,45.6
2018-06-30T07:55:09.914Z,45.4
2018-06-30T07:56:11.345Z,45.2
2018-06-30T07:57:12.710Z,44.9
2018-06-30T07:58:14.125Z,44.9
2018-06-30T07:59:15.530Z,45.0
2018-06-30T08:00:16.946Z,44.7
2018-06-30T08:01:18.322Z,44.6
2018-06-30T08:02:19.766Z,44.3
2018-06-30T08:03:21.110Z,44.4
2018-06-30T08:04:22.495Z,44.7
2018-06-30T08:05:23.880Z,44.4
2018-06-30T08:06:25.290Z,44.4
2018-06-30T08:07:26.743Z,44.5
2018-06-30T08:08:28.054Z,44.8
2018-06-30T08:09:29.435Z,44.7
2018-06-30T08:10:30.818Z,45.0
2018-06-30T08:11:32.219Z,44.7
2018-06-30T08:12:33.603Z,44.6
2018-06-30T08:13:34.984Z,44.4
2018-06-30T08:14:36.388Z,44.3
2018-06-30T08:15:37.768Z,44.1
2018-06-30T08:16:39.169Z,43.8
2018-06-30T08:17:40.569Z,43.7
2018-06-30T08:18:41.959Z,43.5
2018-06-30T08:19:43.349Z,43.4
2018-06-30T08:20:44.734Z,43.2
2018-06-30T08:21:46.133Z,43.1
2018-06-30T08:22:47.517Z,43.2
2018-06-30T08:23:48.916Z,42.9
2018-06-30T08:24:50.290Z,42.8
2018-06-30T08:25:51.688Z,42.6
2018-06-30T08:26:53.080Z,42.8
2018-06-30T08:27:54.475Z,43.0
2018-06-30T08:28:55.864Z,42.5
2018-06-30T08:29:57.251Z,43.4
2018-06-30T08:30:58.666Z,42.9
2018-06-30T08:32:00.052Z,42.9
2018-06-30T08:33:01.496Z,42.6
2018-06-30T08:34:02.833Z,42.8
2018-06-30T08:35:04.215Z,43.0
2018-06-30T08:36:05.619Z,42.4
2018-06-30T08:37:07.008Z,42.0
2018-06-30T08:38:08.398Z,42.1
2018-06-30T08:39:09.804Z,42.4
2018-06-30T08:40:11.218Z,42.1
2018-06-30T08:41:12.728Z,41.9
2018-06-30T08:42:14.135Z,41.6
2018-06-30T08:43:15.547Z,41.3
2018-06-30T08:44:16.971Z,43.1
2018-06-30T08:45:18.371Z,43.3
2018-06-30T08:46:19.769Z,42.9
2018-06-30T08:47:21.170Z,42.8
2018-06-30T08:48:22.563Z,42.5
2018-06-30T08:49:23.945Z,43.1
2018-06-30T08:50:25.373Z,42.7
2018-06-30T08:51:26.761Z,42.8
2018-06-30T08:52:28.159Z,42.8
2018-06-30T08:53:29.545Z,41.8
2018-06-30T08:54:30.934Z,42.9
2018-06-30T08:55:32.371Z,42.8
2018-06-30T08:56:33.712Z,42.4
2018-06-30T08:57:35.105Z,42.3
2018-06-30T08:58:36.498Z,43.3
2018-06-30T08:59:37.899Z,42.6
2018-06-30T09:00:39.359Z,42.9
2018-06-30T09:01:40.630Z,42.9
2018-06-30T09:02:42.021Z,42.9
2018-06-30T09:03:43.436Z,43.3
2018-06-30T09:04:44.806Z,42.8
2018-06-30T09:05:46.206Z,41.9
2018-06-30T09:06:47.601Z,42.1
2018-06-30T09:07:48.991Z,41.5
2018-06-30T09:08:50.394Z,41.7
2018-06-30T09:09:51.785Z,41.2
2018-06-30T09:10:53.182Z,42.0
2018-06-30T09:11:54.631Z,42.1
2018-06-30T09:12:55.984Z,41.8
2018-06-30T09:13:57.376Z,41.2
2018-06-30T09:14:58.769Z,42.3
2018-06-30T09:16:00.161Z,41.5
2018-06-30T09:17:01.550Z,41.5
2018-06-30T09:18:02.955Z,41.9
2018-06-30T09:19:04.340Z,41.4
2018-06-30T09:20:05.740Z,41.8
2018-06-30T09:21:07.128Z,41.9
2018-06-30T09:22:08.506Z,41.7
2018-06-30T09:23:09.936Z,41.9
2018-06-30T09:24:11.320Z,41.2
2018-06-30T09:25:12.655Z,40.6
2018-06-30T09:26:14.864Z,40.9
2018-06-30T09:27:16.259Z,40.4
2018-06-30T09:28:17.646Z,40.8
2018-06-30T09:29:19.044Z,41.0
2018-06-30T09:30:20.425Z,41.1
2018-06-30T09:31:21.830Z,40.9
2018-06-30T09:32:23.226Z,41.6
2018-06-30T09:33:24.614Z,40.5
2018-06-30T09:34:26.007Z,40.7
2018-06-30T09:35:27.401Z,41.5
2018-06-30T09:36:28.797Z,41.2
2018-06-30T09:37:30.180Z,41.2
2018-06-30T09:38:31.584Z,41.7
2018-06-30T09:39:32.969Z,40.9
2018-06-30T09:40:34.358Z,40.9
2018-06-30T09:41:35.765Z,40.9
2018-06-30T09:42:37.155Z,40.8
2018-06-30T09:43:38.571Z,40.9
2018-06-30T09:44:40.041Z,40.8
2018-06-30T09:45:41.329Z,41.2
2018-06-30T09:46:42.743Z,40.6
2018-06-30T09:47:44.144Z,40.9
2018-06-30T09:48:45.541Z,41.1
2018-06-30T09:49:46.935Z,41.0
2018-06-30T09:50:48.325Z,40.5
2018-06-30T09:51:49.704Z,40.7
2018-06-30T09:52:51.100Z,40.5
2018-06-30T09:53:52.496Z,40.4
2018-06-30T09:54:53.885Z,40.6
2018-06-30T09:55:55.274Z,40.3
2018-06-30T09:56:56.664Z,40.3
2018-06-30T09:57:58.064Z,40.3
2018-06-30T09:58:59.452Z,40.6
2018-06-30T10:00:00.855Z,40.4
2018-06-30T10:01:02.235Z,40.0
2018-06-30T10:02:03.635Z,39.9
2018-06-30T10:03:05.034Z,39.8
2018-06-30T10:04:06.435Z,40.2
2018-06-30T10:05:07.825Z,40.2
2018-06-30T10:06:09.239Z,40.1
2018-06-30T10:07:10.630Z,40.1
2018-06-30T10:08:12.020Z,40.1
2018-06-30T10:09:13.458Z,40.1
2018-06-30T10:10:14.821Z,40.5
2018-06-30T10:11:16.231Z,40.4
2018-06-30T10:12:17.622Z,40.4
2018-06-30T10:13:19.008Z,39.9
2018-06-30T10:14:20.401Z,39.7
2018-06-30T10:15:21.782Z,39.8
2018-06-30T10:16:23.181Z,39.9
2018-06-30T10:17:25.110Z,40.0
2018-06-30T10:18:26.481Z,40.0
2018-06-30T10:19:27.933Z,40.1
2018-06-30T10:20:29.272Z,40.2
2018-06-30T10:21:30.673Z,40.0
2018-06-30T10:22:32.055Z,40.2
2018-06-30T10:23:33.456Z,40.1
2018-06-30T10:24:34.862Z,40.0
2018-06-30T10:25:36.236Z,40.0
2018-06-30T10:26:37.625Z,40.4
2018-06-30T10:27:39.041Z,40.4
2018-06-30T10:28:40.460Z,40.4
2018-06-30T10:29:41.860Z,39.9
2018-06-30T10:30:43.245Z,40.0
2018-06-30T10:31:44.644Z,39.9
2018-06-30T10:32:46.035Z,40.5
2018-06-30T10:33:47.450Z,40.3
2018-06-30T10:34:48.836Z,40.5
2018-06-30T10:35:50.233Z,41.0
2018-06-30T10:36:51.620Z,40.6
2018-06-30T10:37:53.012Z,40.3
2018-06-30T10:38:54.418Z,39.6
2018-06-30T10:39:55.825Z,38.9
2018-06-30T10:40:57.215Z,38.8
2018-06-30T10:41:58.596Z,39.0
2018-06-30T10:42:59.999Z,38.9
2018-06-30T10:44:01.390Z,38.5
2018-06-30T10:45:02.794Z,38.3
2018-06-30T10:46:04.177Z,38.3
2018-06-30T10:47:05.573Z,38.0
2018-06-30T10:48:06.961Z,38.2
2018-06-30T10:49:08.349Z,38.6
2018-06-30T10:50:09.750Z,38.3
2018-06-30T10:51:11.147Z,37.8
2018-06-30T10:52:12.540Z,38.3
2018-06-30T10:53:13.950Z,38.3
2018-06-30T10:54:15.339Z,38.5
2018-06-30T10:55:16.726Z,38.2
2018-06-30T10:56:18.121Z,38.3
2018-06-30T10:57:19.526Z,38.2
2018-06-30T10:58:20.912Z,38.1
2018-06-30T10:59:22.310Z,38.3
2018-06-30T11:00:23.778Z,38.2
2018-06-30T11:01:25.062Z,38.4
2018-06-30T11:02:26.463Z,38.2
2018-06-30T11:03:27.841Z,38.7
2018-06-30T11:04:29.237Z,38.7
2018-06-30T11:05:30.622Z,38.3
2018-06-30T11:06:32.018Z,38.5
2018-06-30T11:07:33.422Z,38.4
2018-06-30T11:08:34.822Z,37.9
2018-06-30T11:09:36.212Z,37.7
2018-06-30T11:10:37.615Z,37.5
2018-06-30T11:11:39.006Z,37.5
2018-06-30T11:12:40.399Z,37.8
2018-06-30T11:13:41.786Z,38.1
2018-06-30T11:14:43.176Z,38.2
2018-06-30T11:15:44.567Z,38.6
2018-06-30T11:16:46.163Z,39.0
2018-06-30T11:17:47.526Z,38.8
2018-06-30T11:18:48.940Z,38.8
2018-06-30T11:19:50.413Z,38.7
2018-06-30T11:20:51.800Z,39.0
2018-06-30T11:21:53.194Z,39.2
2018-06-30T11:22:54.576Z,38.6
2018-06-30T11:23:55.968Z,38.8
2018-06-30T11:24:57.356Z,38.9
2018-06-30T11:25:58.737Z,38.9
2018-06-30T11:27:00.141Z,38.7
2018-06-30T11:28:01.596Z,38.6
2018-06-30T11:29:03.055Z,38.3
2018-06-30T11:30:04.447Z,38.2
2018-06-30T11:31:05.832Z,38.4
2018-06-30T11:32:07.235Z,38.6
2018-06-30T11:33:08.620Z,38.9
2018-06-30T11:34:10.003Z,38.9
2018-06-30T11:35:11.392Z,39.6
2018-06-30T11:36:12.776Z,39.5
2018-06-30T11:37:14.202Z,39.6
2018-06-30T11:38:15.578Z,39.6
2018-06-30T11:39:16.970Z,39.6
2018-06-30T11:40:19.635Z,39.6
2018-06-30T11:41:21.036Z,39.4
2018-06-30T11:42:22.423Z,38.8
2018-06-30T11:43:23.820Z,39.3
2018-06-30T11:44:25.226Z,39.0
2018-06-30T11:45:26.607Z,38.5
2018-06-30T11:46:27.995Z,38.1
2018-06-30T11:47:29.384Z,38.2
2018-06-30T11:48:30.766Z,38.3
2018-06-30T11:49:32.178Z,38.2
2018-06-30T11:50:33.589Z,38.4
2018-06-30T11:51:35.021Z,38.3
2018-06-30T11:52:36.451Z,38.1
2018-06-30T11:53:37.850Z,38.1
2018-06-30T11:54:39.272Z,37.7
2018-06-30T11:55:40.800Z,38.0
2018-06-30T11:56:42.217Z,37.8
2018-06-30T11:57:43.677Z,37.8
2018-06-30T11:58:45.148Z,37.4
2018-06-30T11:59:46.555Z,37.1
2018-06-30T12:00:47.947Z,37.1
2018-06-30T12:01:49.577Z,37.2
2018-06-30T12:02:50.966Z,37.8
2018-06-30T12:03:52.352Z,37.7
2018-06-30T12:04:53.736Z,37.7
2018-06-30T12:05:55.151Z,37.4
2018-06-30T12:06:56.532Z,37.4
2018-06-30T12:07:57.942Z,37.3
2018-06-30T12:08:59.346Z,36.9
2018-06-30T12:10:00.732Z,37.1
2018-06-30T12:11:02.145Z,36.8
2018-06-30T12:12:03.548Z,36.6
2018-06-30T12:13:04.957Z,36.3
2018-06-30T12:14:06.355Z,36.2
2018-06-30T12:15:07.757Z,36.1
2018-06-30T12:16:09.146Z,36.4
2018-06-30T12:17:10.549Z,36.3
2018-06-30T12:18:11.947Z,36.5
2018-06-30T12:19:13.345Z,36.4
2018-06-30T12:20:14.744Z,36.3
2018-06-30T12:21:16.142Z,36.1
2018-06-30T12:22:17.531Z,36.4
2018-06-30T12:23:18.928Z,36.4
2018-06-30T12:24:20.320Z,36.3
2018-06-30T12:25:22.495Z,36.1
2018-06-30T12:26:23.894Z,36.0
2018-06-30T12:27:25.815Z,35.8
2018-06-30T12:28:27.211Z,36.1
2018-06-30T12:29:28.604Z,36.0
2018-06-30T12:30:30.598Z,35.8
2018-06-30T12:31:31.989Z,36.1
2018-06-30T12:32:33.402Z,35.7
2018-06-30T12:33:34.788Z,35.9
2018-06-30T12:34:36.196Z,35.6
2018-06-30T12:35:37.596Z,35.7
2018-06-30T12:36:38.984Z,35.8
2018-06-30T12:37:40.373Z,35.8
2018-06-30T12:38:41.776Z,35.8
2018-06-30T12:39:43.997Z,35.8
2018-06-30T12:40:44.553Z,35.6
2018-06-30T12:41:46.827Z,35.5
2018-06-30T12:42:48.232Z,36.1
2018-06-30T12:43:49.632Z,35.8
2018-06-30T12:44:53.475Z,35.7
2018-06-30T12:45:54.857Z,35.7
2018-06-30T12:46:56.246Z,35.8
2018-06-30T12:47:58.487Z,35.7
2018-06-30T12:48:59.882Z,35.7
2018-06-30T12:50:01.892Z,35.6
2018-06-30T12:51:03.293Z,35.8
2018-06-30T12:52:04.694Z,35.7
2018-06-30T12:53:06.079Z,35.5
2018-06-30T12:54:07.568Z,35.6
2018-06-30T12:55:08.849Z,35.8
2018-06-30T12:56:10.249Z,35.8
2018-06-30T12:57:11.633Z,35.8
2018-06-30T12:58:13.037Z,35.7
2018-06-30T12:59:15.329Z,35.9
2018-06-30T13:00:16.709Z,35.7
2018-06-30T13:01:18.103Z,35.9
2018-06-30T13:02:19.504Z,35.7
2018-06-30T13:03:20.893Z,35.9
2018-06-30T13:04:22.287Z,35.7
2018-06-30T13:05:23.672Z,35.6
2018-06-30T13:06:25.067Z,35.6
2018-06-30T13:07:26.509Z,35.7
2018-06-30T13:08:27.932Z,35.6
2018-06-30T13:09:29.323Z,35.7
2018-06-30T13:10:30.738Z,35.7
2018-06-30T13:11:32.134Z,35.9
2018-06-30T13:12:33.518Z,35.7
2018-06-30T13:13:34.913Z,35.8
2018-06-30T13:14:36.306Z,35.4
2018-06-30T13:15:37.702Z,35.8
2018-06-30T13:16:39.097Z,35.7
2018-06-30T13:17:40.528Z,35.7
2018-06-30T13:18:41.842Z,35.7
2018-06-30T13:19:43.224Z,35.8
2018-06-30T13:20:44.624Z,35.7
2018-06-30T13:21:46.023Z,36.0
2018-06-30T13:22:47.722Z,35.8
2018-06-30T13:23:49.112Z,35.9
2018-06-30T13:24:50.509Z,36.0
2018-06-30T13:25:51.888Z,36.0
2018-06-30T13:26:53.277Z,35.8
2018-06-30T13:27:54.666Z,35.6
2018-06-30T13:28:56.063Z,35.8
2018-06-30T13:29:57.452Z,35.4
2018-06-30T13:30:58.844Z,35.8
2018-06-30T13:32:00.287Z,35.7
2018-06-30T13:33:01.737Z,35.8
2018-06-30T13:34:03.123Z,35.9
2018-06-30T13:35:04.510Z,35.8
2018-06-30T13:36:05.929Z,35.8
2018-06-30T13:37:07.337Z,35.8